Time;durP1;ratioP1;P1;durP2;ratioP2;P2;SDS_P1;SDS_P2;PMS_P1;PMS_P2;Temp;Humidity;BMP_temperature;BMP_pressure;BME280_temperature;BME280_humidity;BME280_pressure;Samples;Min_cycle;Max_cycle;Signal;HPM_P1;HPM_P2
2022/08/25 00:00:35;;;;;;;3.28;3.15;;;;;;;;;;5064916;28;20428;-68
2022/08/25 00:03:01;;;;;;;2.65;2.35;;;;;;;;;;5064707;28;20232;-68
2022/08/25 00:05:30;;;;;;;3.05;2.85;;;;;;;;;;5064637;28;20470;-68
2022/08/25 00:07:56;;;;;;;2.80;2.60;;;;;;;;;;5064369;28;20208;-68
2022/08/25 00:10:22;;;;;;;3.03;2.88;;;;;;;;;;5064398;28;20205;-68
2022/08/25 00:12:49;;;;;;;3.05;2.90;;;;;;;;;;5064538;28;20217;-68
2022/08/25 00:15:16;;;;;;;2.45;2.45;;;;;;;;;;5064578;28;20205;-68
2022/08/25 00:17:42;;;;;;;3.28;2.70;;;;;;;;;;5064271;28;20197;-68
2022/08/25 00:20:09;;;;;;;4.25;2.70;;;;;;;;;;5064313;28;20201;-68
2022/08/25 00:22:36;;;;;;;5.93;2.83;;;;;;;;;;5064184;28;20388;-68
2022/08/25 00:25:02;;;;;;;2.83;2.63;;;;;;;;;;5064271;28;20197;-68
2022/08/25 00:27:28;;;;;;;3.00;2.80;;;;;;;;;;5064061;28;20197;-68
2022/08/25 00:29:54;;;;;;;3.20;2.92;;;;;;;;;;5064362;28;20513;-68
2022/08/25 00:32:24;;;;;;;2.88;2.53;;;;;;;;;;5064139;28;20228;-68
2022/08/25 00:34:50;;;;;;;3.72;3.08;;;;;;;;;;5064016;28;20201;-68
2022/08/25 00:37:16;;;;;;;4.28;3.15;;;;;;;;;;5063774;28;20197;-68
2022/08/25 00:39:43;;;;;;;2.67;2.58;;;;;;;;;;5064338;28;20243;-68
2022/08/25 00:42:09;;;;;;;3.38;3.00;;;;;;;;;;5063938;28;20197;-68
2022/08/25 00:44:36;;;;;;;4.30;2.88;;;;;;;;;;5063795;28;20197;-68
2022/08/25 00:47:03;;;;;;;4.43;2.83;;;;;;;;;;5063717;28;20228;-68
2022/08/25 00:49:32;;;;;;;3.00;2.80;;;;;;;;;;5063734;28;20268;-68
2022/08/25 00:52:01;;;;;;;3.20;2.97;;;;;;;;;;5063604;28;20197;-68
2022/08/25 00:54:28;;;;;;;3.08;2.88;;;;;;;;;;5063701;28;20263;-68
2022/08/25 00:56:57;;;;;;;2.88;2.78;;;;;;;;;;5063251;28;20209;-68
2022/08/25 00:59:25;;;;;;;2.83;2.72;;;;;;;;;;5063758;28;20197;-68
2022/08/25 01:01:52;;;;;;;2.90;2.65;;;;;;;;;;5063008;28;20208;-68
2022/08/25 01:04:19;;;;;;;6.53;2.97;;;;;;;;;;5063508;28;20230;-68
2022/08/25 01:06:47;;;;;;;3.22;2.92;;;;;;;;;;5063295;28;20229;-68
2022/08/25 01:09:14;;;;;;;2.95;2.85;;;;;;;;;;5063555;28;20201;-68
2022/08/25 01:11:41;;;;;;;3.15;3.05;;;;;;;;;;5063748;28;20489;-68
2022/08/25 01:14:09;;;;;;;3.08;2.97;;;;;;;;;;5063224;28;20221;-68
2022/08/25 01:16:36;;;;;;;3.53;3.25;;;;;;;;;;5062970;28;20247;-68
2022/08/25 01:19:02;;;;;;;3.30;3.10;;;;;;;;;;5063198;28;20235;-68
2022/08/25 01:21:33;;;;;;;7.53;2.92;;;;;;;;;;5063376;28;20197;-68
2022/08/25 01:23:59;;;;;;;2.72;2.63;;;;;;;;;;5063005;28;20260;-68
2022/08/25 01:26:27;;;;;;;3.00;2.90;;;;;;;;;;5062717;28;20209;-68
2022/08/25 01:31:39;;;;;;;3.42;3.25;;;;;;;;;;5062970;28;20398;-68
2022/08/25 01:34:06;;;;;;;3.75;3.55;;;;;;;;;;5063047;28;20258;-68
2022/08/25 01:36:34;;;;;;;3.50;3.30;;;;;;;;;;5062602;28;20197;-68
2022/08/25 01:39:01;;;;;;;3.50;3.40;;;;;;;;;;5062216;28;20243;-68
2022/08/25 01:41:34;;;;;;;3.72;3.42;;;;;;;;;;5062626;28;20197;-68
2022/08/25 01:44:01;;;;;;;4.38;3.10;;;;;;;;;;5062906;28;20197;-68
2022/08/25 01:46:27;;;;;;;3.25;3.03;;;;;;;;;;5062651;28;20259;-68
2022/08/25 01:48:54;;;;;;;3.67;3.47;;;;;;;;;;5062703;28;20197;-68
2022/08/25 01:51:23;;;;;;;3.63;3.42;;;;;;;;;;5062963;28;20231;-68
2022/08/25 01:53:51;;;;;;;4.03;3.70;;;;;;;;;;5062495;28;20224;-68
2022/08/25 01:56:18;;;;;;;3.92;3.67;;;;;;;;;;5062024;28;20467;-68
2022/08/25 01:58:45;;;;;;;3.10;2.90;;;;;;;;;;5062734;28;20227;-68
2022/08/25 02:01:14;;;;;;;3.70;3.50;;;;;;;;;;5062464;28;20212;-68
2022/08/25 02:03:41;;;;;;;3.85;3.40;;;;;;;;;;5062461;28;20225;-68
2022/08/25 02:06:09;;;;;;;4.50;3.40;;;;;;;;;;5062660;28;20224;-68
2022/08/25 02:08:37;;;;;;;3.85;3.20;;;;;;;;;;5062330;28;20198;-68
2022/08/25 02:11:04;;;;;;;3.85;3.65;;;;;;;;;;5062239;28;20263;-68
2022/08/25 02:13:31;;;;;;;3.08;2.97;;;;;;;;;;5061532;28;20601;-68
2022/08/25 02:15:58;;;;;;;3.67;3.30;;;;;;;;;;5062199;28;20205;-68
2022/08/25 02:18:24;;;;;;;4.30;3.28;;;;;;;;;;5062337;28;20197;-68
2022/08/25 02:20:51;;;;;;;3.50;3.20;;;;;;;;;;5062223;28;20204;-68
2022/08/25 02:23:17;;;;;;;3.90;3.30;;;;;;;;;;5061950;28;20199;-68
2022/08/25 02:25:44;;;;;;;3.50;3.20;;;;;;;;;;5062223;28;20477;-68
2022/08/25 02:28:11;;;;;;;3.63;3.35;;;;;;;;;;5061908;28;20220;-68
2022/08/25 02:30:38;;;;;;;3.50;3.35;;;;;;;;;;5062287;28;20204;-68
2022/08/25 02:33:05;;;;;;;3.50;3.30;;;;;;;;;;5061939;28;20474;-68
2022/08/25 02:35:31;;;;;;;3.90;3.65;;;;;;;;;;5061948;28;20441;-68
2022/08/25 02:37:57;;;;;;;3.15;3.05;;;;;;;;;;5062073;28;20395;-68
2022/08/25 02:40:24;;;;;;;3.60;3.45;;;;;;;;;;5062079;28;20227;-68
2022/08/25 02:42:51;;;;;;;4.00;3.67;;;;;;;;;;5062086;28;20197;-68
2022/08/25 02:45:18;;;;;;;4.13;3.83;;;;;;;;;;5062049;28;20536;-68
2022/08/25 02:47:45;;;;;;;3.60;3.40;;;;;;;;;;5061607;28;20197;-68
2022/08/25 02:50:12;;;;;;;4.28;3.97;;;;;;;;;;5061812;28;20197;-68
2022/08/25 02:52:39;;;;;;;3.25;3.15;;;;;;;;;;5061946;28;20219;-68
2022/08/25 02:55:08;;;;;;;3.70;3.50;;;;;;;;;;5061926;28;20543;-68
2022/08/25 02:57:34;;;;;;;4.13;3.83;;;;;;;;;;5061694;28;20520;-68
2022/08/25 03:00:01;;;;;;;3.78;3.65;;;;;;;;;;5061957;28;20197;-68
2022/08/25 03:02:29;;;;;;;3.90;3.47;;;;;;;;;;5061787;28;20197;-68
2022/08/25 03:04:56;;;;;;;3.58;3.38;;;;;;;;;;5061908;28;20405;-68
2022/08/25 03:07:22;;;;;;;3.55;3.45;;;;;;;;;;5061506;28;20197;-68
2022/08/25 03:09:48;;;;;;;3.97;3.72;;;;;;;;;;5061757;28;20196;-68
2022/08/25 03:12:15;;;;;;;3.78;3.55;;;;;;;;;;5061912;28;20235;-68
2022/08/25 03:14:41;;;;;;;4.25;3.85;;;;;;;;;;5061577;28;20240;-68
2022/08/25 03:17:08;;;;;;;4.95;4.05;;;;;;;;;;5061227;28;20247;-68
2022/08/25 03:19:36;;;;;;;4.15;3.83;;;;;;;;;;5061812;28;20243;-68
2022/08/25 03:22:02;;;;;;;4.10;3.90;;;;;;;;;;5061595;28;20197;-68
2022/08/25 03:24:28;;;;;;;4.10;3.90;;;;;;;;;;5061697;28;20193;-68
2022/08/25 03:26:54;;;;;;;4.90;4.03;;;;;;;;;;5065090;28;20197;-68
2022/08/25 03:29:22;;;;;;;4.45;4.15;;;;;;;;;;5065406;28;20197;-68
2022/08/25 03:31:48;;;;;;;3.90;3.70;;;;;;;;;;5065320;28;20243;-68
2022/08/25 03:34:16;;;;;;;4.70;4.35;;;;;;;;;;5065300;28;20217;-68
2022/08/25 03:36:45;;;;;;;4.43;4.07;;;;;;;;;;5065165;28;20197;-68
2022/08/25 03:39:11;;;;;;;4.55;4.32;;;;;;;;;;5065257;28;20211;-68
2022/08/25 03:41:37;;;;;;;4.53;4.13;;;;;;;;;;5065046;28;20201;-68
2022/08/25 03:44:05;;;;;;;4.63;3.92;;;;;;;;;;5065094;28;20193;-68
2022/08/25 03:46:33;;;;;;;4.47;4.18;;;;;;;;;;5064647;28;20201;-68
2022/08/25 03:49:00;;;;;;;5.75;4.70;;;;;;;;;;5065103;28;20232;-68
2022/08/25 03:51:28;;;;;;;4.57;4.20;;;;;;;;;;5064871;28;20197;-68
2022/08/25 03:53:57;;;;;;;4.93;4.55;;;;;;;;;;5064789;28;20536;-68
2022/08/25 03:56:23;;;;;;;4.97;4.50;;;;;;;;;;5064451;28;20284;-68
2022/08/25 03:58:49;;;;;;;4.63;4.22;;;;;;;;;;5064814;28;20477;-68
2022/08/25 04:01:16;;;;;;;5.25;4.50;;;;;;;;;;5064656;28;20220;-68
2022/08/25 04:03:42;;;;;;;4.40;4.00;;;;;;;;;;5064872;28;20193;-68
2022/08/25 04:06:09;;;;;;;6.22;4.18;;;;;;;;;;5064402;28;20421;-68
2022/08/25 04:08:35;;;;;;;4.80;4.50;;;;;;;;;;5064505;28;20197;-68
2022/08/25 04:11:06;;;;;;;4.70;4.30;;;;;;;;;;5064524;28;20258;-68
2022/08/25 04:13:33;;;;;;;4.28;4.07;;;;;;;;;;5064480;28;20224;-68
2022/08/25 04:15:59;;;;;;;4.85;4.45;;;;;;;;;;5064132;28;20204;-67
2022/08/25 04:18:25;;;;;;;5.35;4.28;;;;;;;;;;5064640;28;20197;-67
2022/08/25 04:21:00;;;;;;;4.90;4.50;;;;;;;;;;5064262;28;20197;-67
2022/08/25 04:23:27;;;;;;;5.55;4.63;;;;;;;;;;5064493;28;20231;-68
2022/08/25 04:25:53;;;;;;;6.10;4.40;;;;;;;;;;5064266;28;20243;-67
2022/08/25 04:28:21;;;;;;;4.70;4.22;;;;;;;;;;5064392;28;20201;-68
2022/08/25 04:30:47;;;;;;;4.80;4.43;;;;;;;;;;5064404;28;20431;-67
2022/08/25 04:33:13;;;;;;;5.15;4.28;;;;;;;;;;5064437;28;20197;-67
2022/08/25 04:35:40;;;;;;;4.15;3.88;;;;;;;;;;5064190;28;20414;-68
2022/08/25 04:38:06;;;;;;;4.70;4.40;;;;;;;;;;5062784;28;20205;-68
2022/08/25 04:40:32;;;;;;;4.53;4.13;;;;;;;;;;5063918;28;20243;-67
2022/08/25 04:42:59;;;;;;;5.30;4.93;;;;;;;;;;5064150;28;20558;-67
2022/08/25 04:45:26;;;;;;;5.07;4.75;;;;;;;;;;5064068;28;20209;-68
2022/08/25 04:47:53;;;;;;;4.85;4.45;;;;;;;;;;5063850;28;20197;-68
2022/08/25 04:50:20;;;;;;;5.00;4.55;;;;;;;;;;5063835;28;20370;-68
2022/08/25 04:52:46;;;;;;;4.35;4.05;;;;;;;;;;5063901;28;20255;-68
2022/08/25 04:55:12;;;;;;;5.20;4.80;;;;;;;;;;5063570;28;20220;-68
2022/08/25 04:57:38;;;;;;;5.63;5.13;;;;;;;;;;5063325;28;20204;-67
2022/08/25 05:00:06;;;;;;;5.35;4.95;;;;;;;;;;5063721;28;20251;-67
2022/08/25 05:02:33;;;;;;;4.50;4.30;;;;;;;;;;5063614;28;20233;-67
2022/08/25 05:05:01;;;;;;;5.57;4.82;;;;;;;;;;5055206;28;20275;-68
2022/08/25 05:07:27;;;;;;;5.10;4.70;;;;;;;;;;5053091;28;20209;-62
2022/08/25 05:09:53;;;;;;;5.13;4.82;;;;;;;;;;5052398;28;20209;-62
2022/08/25 05:12:20;;;;;;;5.43;4.93;;;;;;;;;;5056880;28;20213;-62
2022/08/25 05:14:47;;;;;;;4.85;4.47;;;;;;;;;;5048389;28;20470;-62
2022/08/25 05:17:13;;;;;;;5.63;5.25;;;;;;;;;;5045937;28;20475;-62
2022/08/25 05:19:41;;;;;;;6.40;5.30;;;;;;;;;;5049408;28;20244;-63
2022/08/25 05:22:07;;;;;;;5.40;5.00;;;;;;;;;;5050161;28;20252;-63
2022/08/25 05:24:34;;;;;;;5.25;4.85;;;;;;;;;;5048790;28;20520;-63
2022/08/25 05:27:00;;;;;;;5.75;5.13;;;;;;;;;;5045158;28;20229;-62
2022/08/25 05:29:26;;;;;;;5.38;4.88;;;;;;;;;;5036416;28;20217;-63
2022/08/25 05:31:53;;;;;;;7.25;5.10;;;;;;;;;;5036834;28;20264;-63
2022/08/25 05:34:19;;;;;;;5.90;5.10;;;;;;;;;;5036996;28;20229;-63
2022/08/25 05:36:47;;;;;;;5.10;4.70;;;;;;;;;;5035638;28;20537;-62
2022/08/25 05:39:13;;;;;;;5.50;5.00;;;;;;;;;;5055950;28;20217;-62
2022/08/25 05:41:40;;;;;;;6.80;5.72;;;;;;;;;;5056718;28;20658;-63
2022/08/25 05:44:06;;;;;;;6.43;5.82;;;;;;;;;;5052811;28;20376;-62
2022/08/25 05:46:32;;;;;;;8.88;5.85;;;;;;;;;;5055568;28;20220;-64
2022/08/25 05:48:59;;;;;;;7.40;5.47;;;;;;;;;;5055453;28;20216;-62
2022/08/25 05:51:25;;;;;;;7.60;5.75;;;;;;;;;;5055555;28;20217;-63
2022/08/25 05:53:53;;;;;;;10.43;5.82;;;;;;;;;;5056119;28;20244;-62
2022/08/25 05:56:20;;;;;;;6.13;5.50;;;;;;;;;;5050325;28;20225;-62
2022/08/25 05:58:46;;;;;;;7.90;5.70;;;;;;;;;;5035190;28;20397;-62
2022/08/25 06:04:05;;;;;;;9.32;5.43;;;;;;;;;;5055660;28;20280;-62
2022/08/25 06:06:31;;;;;;;6.72;5.85;;;;;;;;;;5055312;28;20232;-63
2022/08/25 06:08:59;;;;;;;7.30;5.82;;;;;;;;;;5055767;28;20212;-62
2022/08/25 06:11:26;;;;;;;11.88;5.85;;;;;;;;;;5055771;28;20220;-62
2022/08/25 06:13:52;;;;;;;9.38;7.07;;;;;;;;;;5054456;28;20209;-62
2022/08/25 06:16:18;;;;;;;11.32;6.90;;;;;;;;;;5036126;28;20206;-62
2022/08/25 06:18:45;;;;;;;19.70;8.15;;;;;;;;;;5035537;28;20260;-63
2022/08/25 06:21:16;;;;;;;9.15;7.00;;;;;;;;;;5047681;28;20205;-60
2022/08/25 06:23:42;;;;;;;13.27;7.20;;;;;;;;;;5036370;28;20206;-61
2022/08/25 06:26:14;;;;;;;16.00;7.53;;;;;;;;;;5051510;28;20274;-60
2022/08/25 06:28:40;;;;;;;15.43;7.70;;;;;;;;;;5055849;28;20209;-62
2022/08/25 06:31:07;;;;;;;19.15;8.65;;;;;;;;;;5055363;28;20213;-63
2022/08/25 06:33:33;;;;;;;19.92;8.30;;;;;;;;;;5055409;28;20220;-63
2022/08/25 06:35:59;;;;;;;14.35;8.50;;;;;;;;;;5054979;28;20247;-62
2022/08/25 06:38:26;;;;;;;12.23;7.97;;;;;;;;;;5055403;28;20247;-63
2022/08/25 06:40:52;;;;;;;8.90;7.82;;;;;;;;;;5055281;28;20520;-63
2022/08/25 06:43:20;;;;;;;16.20;7.47;;;;;;;;;;5055290;28;20212;-62
2022/08/25 06:45:47;;;;;;;9.20;7.78;;;;;;;;;;5050208;28;20209;-62
2022/08/25 06:48:13;;;;;;;13.63;7.78;;;;;;;;;;5035579;28;20216;-62
2022/08/25 06:50:40;;;;;;;12.13;7.53;;;;;;;;;;5035831;28;20214;-62
2022/08/25 06:53:07;;;;;;;11.15;7.72;;;;;;;;;;5034976;28;20221;-62
2022/08/25 06:55:34;;;;;;;9.15;7.57;;;;;;;;;;5035458;28;20480;-65
2022/08/25 06:58:02;;;;;;;12.65;7.07;;;;;;;;;;5034674;28;20222;-63
2022/08/25 07:00:29;;;;;;;11.05;7.05;;;;;;;;;;5036143;28;20590;-65
2022/08/25 07:02:56;;;;;;;11.32;7.32;;;;;;;;;;5038914;28;20206;-61
2022/08/25 07:05:22;;;;;;;9.88;7.05;;;;;;;;;;5038673;28;20232;-61
2022/08/25 07:07:49;;;;;;;8.73;6.30;;;;;;;;;;5038626;28;20222;-62
2022/08/25 07:10:15;;;;;;;8.38;5.85;;;;;;;;;;5039111;28;20268;-62
2022/08/25 07:12:42;;;;;;;7.93;6.45;;;;;;;;;;5039046;28;20221;-61
2022/08/25 07:15:08;;;;;;;7.75;6.57;;;;;;;;;;5042989;28;20229;-61
2022/08/25 07:17:36;;;;;;;8.30;6.75;;;;;;;;;;5038671;28;20479;-63
2022/08/25 07:20:03;;;;;;;7.20;6.60;;;;;;;;;;5039569;28;20259;-63
2022/08/25 07:22:29;;;;;;;11.68;6.88;;;;;;;;;;5039166;28;20229;-63
2022/08/25 07:24:55;;;;;;;6.82;6.20;;;;;;;;;;5038131;28;20206;-62
2022/08/25 07:27:22;;;;;;;10.38;6.38;;;;;;;;;;5047283;28;20265;-61
2022/08/25 07:29:49;;;;;;;9.40;6.35;;;;;;;;;;5042721;28;20406;-62
2022/08/25 07:32:15;;;;;;;6.75;6.07;;;;;;;;;;5058325;28;20424;-62
2022/08/25 07:37:26;;;;;;;7.82;6.53;;;;;;;;;;5058707;28;20212;-63
2022/08/25 07:39:53;;;;;;;6.70;6.00;;;;;;;;;;5058368;28;20213;-62
2022/08/25 07:42:19;;;;;;;6.93;6.25;;;;;;;;;;5057622;28;20281;-62
2022/08/25 07:44:48;;;;;;;8.40;6.53;;;;;;;;;;5058496;28;20250;-63
2022/08/25 07:47:15;;;;;;;6.70;6.10;;;;;;;;;;5058095;28;20251;-64
2022/08/25 07:49:45;;;;;;;8.35;7.53;;;;;;;;;;5058650;28;20451;-63
2022/08/25 07:52:12;;;;;;;6.65;6.05;;;;;;;;;;5058422;28;20213;-65
2022/08/25 07:54:38;;;;;;;10.90;6.22;;;;;;;;;;5058317;28;20232;-63
2022/08/25 07:57:05;;;;;;;7.80;6.13;;;;;;;;;;5057677;28;20224;-63
2022/08/25 07:59:32;;;;;;;8.25;6.60;;;;;;;;;;5051578;28;20226;-61
2022/08/25 08:01:58;;;;;;;6.47;5.90;;;;;;;;;;5038589;28;20593;-63
2022/08/25 08:04:25;;;;;;;7.97;6.30;;;;;;;;;;5038839;28;20735;-63
2022/08/25 08:06:52;;;;;;;7.18;6.43;;;;;;;;;;5048274;28;20202;-62
2022/08/25 08:09:18;;;;;;;8.70;6.65;;;;;;;;;;5038562;28;20210;-62
2022/08/25 08:11:45;;;;;;;6.38;5.78;;;;;;;;;;5037910;28;20201;-61
2022/08/25 08:14:12;;;;;;;8.18;6.45;;;;;;;;;;5045725;28;20228;-64
2022/08/25 08:16:38;;;;;;;9.68;6.07;;;;;;;;;;5037647;28;20597;-63
2022/08/25 08:19:05;;;;;;;9.68;7.40;;;;;;;;;;5057875;28;20570;-62
2022/08/25 08:21:32;;;;;;;6.50;5.88;;;;;;;;;;5057453;28;20211;-63
2022/08/25 08:24:00;;;;;;;6.80;6.20;;;;;;;;;;5058846;28;20209;-63
2022/08/25 08:26:27;;;;;;;10.77;8.18;;;;;;;;;;5056817;28;20208;-63
2022/08/25 08:28:53;;;;;;;6.47;5.88;;;;;;;;;;5058334;28;20251;-62
2022/08/25 08:31:20;;;;;;;6.53;5.93;;;;;;;;;;5058337;28;20219;-62
2022/08/25 08:33:47;;;;;;;6.45;5.95;;;;;;;;;;5058089;28;20216;-62
2022/08/25 08:36:13;;;;;;;5.80;5.40;;;;;;;;;;5056684;28;20229;-62
2022/08/25 08:38:41;;;;;;;10.20;8.85;;;;;;;;;;5058107;28;20555;-62
2022/08/25 08:44:03;;;;;;;5.78;5.28;;;;;;;;;;5057512;28;20282;-63
2022/08/25 08:46:36;;;;;;;10.18;9.20;;;;;;;;;;5056720;28;20208;-62
2022/08/25 08:49:06;;;;;;;6.63;5.68;;;;;;;;;;5056720;28;20562;-63
2022/08/25 08:51:35;;;;;;;6.13;5.65;;;;;;;;;;5049689;28;20521;-63
2022/08/25 08:54:07;;;;;;;6.20;5.55;;;;;;;;;;5037478;28;20236;-63
2022/08/25 08:56:38;;;;;;;11.88;9.77;;;;;;;;;;5036846;28;20275;-63
2022/08/25 08:59:07;;;;;;;6.90;6.30;;;;;;;;;;5044312;28;20243;-63
2022/08/25 09:01:35;;;;;;;5.40;5.00;;;;;;;;;;5057555;28;20255;-64
2022/08/25 09:04:05;;;;;;;9.02;6.57;;;;;;;;;;5056818;28;20212;-63
2022/08/25 09:06:32;;;;;;;6.43;5.75;;;;;;;;;;5056782;28;20220;-63
2022/08/25 09:09:01;;;;;;;5.50;5.20;;;;;;;;;;5056971;28;20254;-63
2022/08/25 09:11:30;;;;;;;5.00;4.63;;;;;;;;;;5057319;28;20577;-63
2022/08/25 09:14:09;;;;;;;4.90;4.43;;;;;;;;;;5055204;28;20209;-63
2022/08/25 09:16:57;;;;;;;5.45;4.43;;;;;;;;;;5037275;28;20240;-62
2022/08/25 09:19:35;;;;;;;4.97;4.55;;;;;;;;;;5042444;28;20220;-64
2022/08/25 09:22:05;;;;;;;5.13;4.80;;;;;;;;;;5037244;28;20217;-63
2022/08/25 09:24:40;;;;;;;5.25;4.82;;;;;;;;;;5036050;28;20236;-63
2022/08/25 09:27:11;;;;;;;5.43;4.80;;;;;;;;;;5051341;28;20446;-62
2022/08/25 09:29:45;;;;;;;4.65;4.35;;;;;;;;;;5044761;28;20216;-62
2022/08/25 09:32:11;;;;;;;4.95;4.65;;;;;;;;;;5056944;28;20519;-63
2022/08/25 09:34:38;;;;;;;6.47;4.40;;;;;;;;;;5056928;28;20220;-63
2022/08/25 09:37:04;;;;;;;4.28;4.07;;;;;;;;;;5036707;28;20279;-62
2022/08/25 09:39:30;;;;;;;5.55;4.55;;;;;;;;;;5036209;28;20252;-62
2022/08/25 09:41:58;;;;;;;5.03;4.63;;;;;;;;;;5036381;28;20255;-61
2022/08/25 09:44:26;;;;;;;4.50;4.20;;;;;;;;;;5036751;28;20253;-62
2022/08/25 09:47:00;;;;;;;4.60;4.30;;;;;;;;;;5035746;28;20209;-64
2022/08/25 09:49:31;;;;;;;4.38;4.00;;;;;;;;;;5036565;28;20213;-64
2022/08/25 09:52:15;;;;;;;4.28;4.07;;;;;;;;;;5036148;28;20493;-62
2022/08/25 09:54:42;;;;;;;4.85;4.32;;;;;;;;;;5036234;28;20400;-65
2022/08/25 09:57:08;;;;;;;7.00;4.20;;;;;;;;;;5035569;28;20233;-64
2022/08/25 09:59:35;;;;;;;4.38;4.18;;;;;;;;;;5036650;28;20332;-64
2022/08/25 10:02:05;;;;;;;4.22;3.90;;;;;;;;;;5039385;28;20229;-64
2022/08/25 10:04:35;;;;;;;4.32;3.95;;;;;;;;;;5057459;28;20280;-64
2022/08/25 10:07:02;;;;;;;4.00;3.80;;;;;;;;;;5055805;28;20574;-64
2022/08/25 10:09:31;;;;;;;4.10;3.75;;;;;;;;;;5057095;28;20213;-65
2022/08/25 10:11:59;;;;;;;4.30;4.00;;;;;;;;;;5056556;28;20208;-63
2022/08/25 10:14:33;;;;;;;3.83;3.63;;;;;;;;;;5056703;28;20275;-63
2022/08/25 10:17:13;;;;;;;4.00;3.70;;;;;;;;;;5040712;28;20301;-63
2022/08/25 10:19:40;;;;;;;4.40;4.00;;;;;;;;;;5037772;28;20213;-63
2022/08/25 10:22:07;;;;;;;5.75;4.38;;;;;;;;;;5035623;28;20252;-62
2022/08/25 10:24:34;;;;;;;4.97;4.47;;;;;;;;;;5035950;28;20219;-63
2022/08/25 10:27:04;;;;;;;4.47;4.18;;;;;;;;;;5035159;28;20213;-63
2022/08/25 10:29:38;;;;;;;4.47;4.18;;;;;;;;;;5035559;28;20217;-63
2022/08/25 10:32:07;;;;;;;4.10;3.90;;;;;;;;;;5035430;28;20217;-65
2022/08/25 10:34:42;;;;;;;4.32;4.10;;;;;;;;;;5035082;28;20232;-64
2022/08/25 10:37:12;;;;;;;4.15;3.90;;;;;;;;;;5035344;28;20233;-65
2022/08/25 10:39:40;;;;;;;4.20;3.90;;;;;;;;;;5035200;28;20441;-70
2022/08/25 10:42:29;;;;;;;4.13;3.95;;;;;;;;;;5036086;28;20213;-70
2022/08/25 10:47:59;;;;;;;5.47;3.88;;;;;;;;;;5039103;28;20215;-70
2022/08/25 10:50:32;;;;;;;3.90;3.67;;;;;;;;;;5035632;28;20220;-70
2022/08/25 10:53:09;;;;;;;3.92;3.67;;;;;;;;;;5035312;28;20524;-70
2022/08/25 10:55:43;;;;;;;3.33;3.13;;;;;;;;;;5035287;28;20224;-70
2022/08/25 10:58:13;;;;;;;3.65;3.35;;;;;;;;;;5035537;28;20532;-70
2022/08/25 11:00:42;;;;;;;3.65;3.45;;;;;;;;;;5035473;28;20226;-70
2022/08/25 11:03:14;;;;;;;3.15;3.05;;;;;;;;;;5035684;28;20267;-70
2022/08/25 11:05:43;;;;;;;4.93;3.45;;;;;;;;;;5043096;28;20224;-70
2022/08/25 11:08:12;;;;;;;4.88;3.20;;;;;;;;;;5054879;28;20209;-70
2022/08/25 11:10:42;;;;;;;3.80;3.47;;;;;;;;;;5055625;28;20512;-70
2022/08/25 11:13:12;;;;;;;3.30;3.05;;;;;;;;;;5055749;28;20200;-70
2022/08/25 11:15:43;;;;;;;2.70;2.60;;;;;;;;;;5042363;28;20485;-70
2022/08/25 11:18:11;;;;;;;3.35;3.13;;;;;;;;;;5055847;28;20215;-70
2022/08/25 11:20:38;;;;;;;3.63;3.35;;;;;;;;;;5047245;28;20258;-71
2022/08/25 11:23:11;;;;;;;2.80;2.70;;;;;;;;;;5034913;28;20507;-71
2022/08/25 11:25:40;;;;;;;3.35;3.05;;;;;;;;;;5035112;28;20232;-71
2022/08/25 11:28:09;;;;;;;3.10;2.97;;;;;;;;;;5034996;28;20216;-68
2022/08/25 11:30:36;;;;;;;3.15;2.53;;;;;;;;;;5034966;28;20213;-68
2022/08/25 11:33:03;;;;;;;2.90;2.80;;;;;;;;;;5035384;28;20280;-68
2022/08/25 11:35:32;;;;;;;2.78;2.47;;;;;;;;;;5034528;28;20217;-70
2022/08/25 11:38:11;;;;;;;3.90;2.70;;;;;;;;;;5034922;28;20217;-68
2022/08/25 11:40:44;;;;;;;3.72;2.55;;;;;;;;;;5035425;28;20259;-70
2022/08/25 11:43:16;;;;;;;2.95;2.75;;;;;;;;;;5044203;28;20211;-70
2022/08/25 11:45:51;;;;;;;2.80;2.70;;;;;;;;;;5054841;28;20294;-70
2022/08/25 11:48:21;;;;;;;3.00;2.90;;;;;;;;;;5058574;28;20542;-70
2022/08/25 11:50:56;;;;;;;2.75;2.60;;;;;;;;;;5058560;28;20212;-70
2022/08/25 11:53:24;;;;;;;3.53;3.33;;;;;;;;;;5058102;28;20204;-70
2022/08/25 11:55:54;;;;;;;3.42;2.85;;;;;;;;;;5056415;28;20232;-70
2022/08/25 11:58:32;;;;;;;3.10;3.00;;;;;;;;;;5038193;28;20263;-70
2022/08/25 12:00:59;;;;;;;2.58;2.38;;;;;;;;;;5038709;28;20213;-70
2022/08/25 12:03:44;;;;;;;2.88;2.75;;;;;;;;;;5039635;28;20630;-70
2022/08/25 12:06:15;;;;;;;2.72;2.63;;;;;;;;;;5057803;28;20270;-70
2022/08/25 12:08:49;;;;;;;2.63;2.55;;;;;;;;;;5057035;28;20212;-70
2022/08/25 12:11:42;;;;;;;2.67;2.58;;;;;;;;;;5058121;28;20566;-70
2022/08/25 12:14:14;;;;;;;2.90;2.70;;;;;;;;;;5050703;28;20502;-69
2022/08/25 12:16:42;;;;;;;2.63;2.60;;;;;;;;;;5037396;28;20233;-70
2022/08/25 12:19:26;;;;;;;3.42;3.13;;;;;;;;;;5038074;28;20255;-70
2022/08/25 12:21:53;;;;;;;3.15;2.85;;;;;;;;;;5038274;28;20209;-71
2022/08/25 12:24:21;;;;;;;3.35;2.45;;;;;;;;;;5038271;28;20229;-70
2022/08/25 12:26:52;;;;;;;2.85;2.53;;;;;;;;;;5056962;28;20216;-70
2022/08/25 12:29:25;;;;;;;3.20;2.70;;;;;;;;;;5057302;28;20243;-70
2022/08/25 12:31:57;;;;;;;2.67;2.50;;;;;;;;;;5057717;28;20528;-71
2022/08/25 12:34:41;;;;;;;2.83;2.63;;;;;;;;;;5057425;28;20221;-70
2022/08/25 12:37:12;;;;;;;5.13;2.90;;;;;;;;;;5056427;28;20232;-70
2022/08/25 12:39:44;;;;;;;2.85;2.75;;;;;;;;;;5056865;28;20228;-70
2022/08/25 12:42:21;;;;;;;2.70;2.60;;;;;;;;;;5057799;28;20537;-70
2022/08/25 12:45:07;;;;;;;2.60;2.50;;;;;;;;;;5050181;28;20216;-70
2022/08/25 12:47:33;;;;;;;2.92;2.72;;;;;;;;;;5056703;28;20216;-70
2022/08/25 12:50:14;;;;;;;2.60;2.47;;;;;;;;;;5056829;28;20601;-69
2022/08/25 12:52:43;;;;;;;4.85;2.72;;;;;;;;;;5057399;28;20255;-72
2022/08/25 12:55:11;;;;;;;2.58;2.38;;;;;;;;;;5049074;28;20276;-71
2022/08/25 12:57:41;;;;;;;2.83;2.10;;;;;;;;;;5055306;28;20287;-70
2022/08/25 13:00:15;;;;;;;2.47;2.38;;;;;;;;;;5048928;28;20212;-70
2022/08/25 13:02:56;;;;;;;2.65;2.55;;;;;;;;;;5037964;28;20531;-70
2022/08/25 13:05:40;;;;;;;2.53;2.45;;;;;;;;;;5049967;28;20603;-70
2022/08/25 13:08:22;;;;;;;6.38;2.50;;;;;;;;;;5049272;28;20730;-70
2022/08/25 13:10:51;;;;;;;2.70;2.50;;;;;;;;;;5056351;28;20216;-70
2022/08/25 13:13:23;;;;;;;2.88;2.63;;;;;;;;;;5057647;28;20215;-71
2022/08/25 13:15:58;;;;;;;2.33;2.22;;;;;;;;;;5038806;28;20227;-70
2022/08/25 13:18:26;;;;;;;2.78;2.35;;;;;;;;;;5036436;28;20255;-70
2022/08/25 13:20:54;;;;;;;2.30;2.20;;;;;;;;;;5036587;28;20217;-70
2022/08/25 13:23:22;;;;;;;3.67;2.40;;;;;;;;;;5036932;28;20209;-70
2022/08/25 13:25:50;;;;;;;2.40;2.30;;;;;;;;;;5035610;28;20268;-70
2022/08/25 13:28:20;;;;;;;3.72;2.50;;;;;;;;;;5036104;28;20213;-70
2022/08/25 13:30:55;;;;;;;2.60;2.50;;;;;;;;;;5036048;28;20289;-70
2022/08/25 13:33:23;;;;;;;1.80;1.70;;;;;;;;;;5036578;28;20428;-70
2022/08/25 13:37:26;;;;;;;2.42;2.22;;;;;;;;;;5035745;28;20245;-70
2022/08/25 13:38:36;;;;;;;2.00;1.90;;;;;;;;;;5035300;28;20259;-70
2022/08/25 13:41:02;;;;;;;2.35;1.98;;;;;;;;;;5035588;28;20213;-70
2022/08/25 13:43:29;;;;;;;2.20;2.00;;;;;;;;;;5046464;28;20550;-70
2022/08/25 13:45:56;;;;;;;2.30;2.00;;;;;;;;;;5055739;28;20444;-70
2022/08/25 13:48:32;;;;;;;2.20;2.20;;;;;;;;;;5054296;28;20209;-70
2022/08/25 13:51:05;;;;;;;2.38;2.25;;;;;;;;;;5036310;28;20336;-70
2022/08/25 13:53:32;;;;;;;2.38;2.00;;;;;;;;;;5035878;28;20220;-70
2022/08/25 13:55:59;;;;;;;2.53;2.42;;;;;;;;;;5035485;28;20221;-70
2022/08/25 13:58:27;;;;;;;2.20;2.10;;;;;;;;;;5036065;28;20330;-70
2022/08/25 14:01:08;;;;;;;2.40;2.30;;;;;;;;;;5035540;28;20284;-70
2022/08/25 14:03:35;;;;;;;4.75;1.92;;;;;;;;;;5035147;28;20217;-70
2022/08/25 14:06:05;;;;;;;2.92;2.20;;;;;;;;;;5035691;28;20228;-70
2022/08/25 14:08:33;;;;;;;2.83;2.30;;;;;;;;;;5035295;28;20213;-70
2022/08/25 14:11:06;;;;;;;2.58;2.38;;;;;;;;;;5035428;28;20225;-70
2022/08/25 14:13:32;;;;;;;2.50;2.40;;;;;;;;;;5050648;28;20205;-70
2022/08/25 14:16:07;;;;;;;2.33;2.15;;;;;;;;;;5036706;28;20647;-70
2022/08/25 14:18:34;;;;;;;3.40;2.20;;;;;;;;;;5035574;28;20212;-70
2022/08/25 14:21:02;;;;;;;3.08;2.55;;;;;;;;;;5035687;28;20231;-70
2022/08/25 14:23:30;;;;;;;2.50;2.40;;;;;;;;;;5041613;28;20413;-70
2022/08/25 14:25:57;;;;;;;2.53;2.40;;;;;;;;;;5055239;28;20219;-70
2022/08/25 14:28:24;;;;;;;2.38;2.10;;;;;;;;;;5055801;28;20236;-70
2022/08/25 14:30:52;;;;;;;2.47;2.28;;;;;;;;;;5037935;28;20377;-70
2022/08/25 14:33:22;;;;;;;2.30;2.10;;;;;;;;;;5044219;28;20213;-70
2022/08/25 14:35:49;;;;;;;4.25;2.55;;;;;;;;;;5055434;28;20301;-70
2022/08/25 14:38:16;;;;;;;2.30;2.20;;;;;;;;;;5055274;28;20229;-70
2022/08/25 14:40:42;;;;;;;2.70;2.50;;;;;;;;;;5055522;28;20218;-70
2022/08/25 14:43:08;;;;;;;3.90;2.60;;;;;;;;;;5055486;28;20262;-70
2022/08/25 14:45:36;;;;;;;2.67;2.40;;;;;;;;;;5052277;28;20224;-70
2022/08/25 14:48:04;;;;;;;3.35;2.33;;;;;;;;;;5035832;28;20251;-70
2022/08/25 14:50:32;;;;;;;2.83;2.50;;;;;;;;;;5035691;28;20575;-70
2022/08/25 14:52:58;;;;;;;2.63;2.53;;;;;;;;;;5035100;28;20397;-70
2022/08/25 14:55:24;;;;;;;2.55;2.45;;;;;;;;;;5035083;28;20438;-70
2022/08/25 14:57:51;;;;;;;2.33;2.17;;;;;;;;;;5052423;28;20236;-70
2022/08/25 15:00:17;;;;;;;1.83;1.83;;;;;;;;;;5054722;28;20216;-70
2022/08/25 15:02:45;;;;;;;2.35;2.25;;;;;;;;;;5046866;28;20276;-70
2022/08/25 15:05:12;;;;;;;2.22;2.05;;;;;;;;;;5034942;28;20233;-70